createdAt,value
2023-01-13T00:02:06.351Z,1.05
2023-01-13T00:05:10.991Z,1.17
2023-01-13T00:08:15.425Z,1.17
2023-01-13T00:11:20.951Z,1.33
2023-01-13T00:14:26.876Z,1.40
2023-01-13T00:17:31.413Z,1.27
2023-01-13T00:20:35.916Z,1.25
2023-01-13T00:23:40.725Z,1.77
2023-01-13T00:26:47.059Z,1.25
2023-01-13T00:29:51.488Z,1.30
2023-01-13T00:32:55.988Z,1.38
2023-01-13T00:36:01.820Z,1.13
2023-01-13T00:39:06.393Z,1.00
2023-01-13T00:42:29.685Z,1.33
2023-01-13T00:45:34.169Z,1.42
2023-01-13T00:48:38.856Z,1.13
2023-01-13T00:51:43.343Z,1.10
2023-01-13T00:54:49.143Z,1.02
2023-01-13T00:57:53.634Z,1.15
2023-01-13T01:01:06.132Z,1.08
2023-01-13T01:04:11.138Z,1.15
2023-01-13T01:07:15.561Z,1.08
2023-01-13T01:10:20.040Z,1.08
2023-01-13T01:13:24.552Z,0.82
2023-01-13T01:16:30.879Z,0.80
2023-01-13T01:19:37.428Z,1.05
2023-01-13T01:22:41.875Z,1.00
2023-01-13T01:25:46.310Z,1.05
2023-01-13T01:28:51.464Z,1.10
2023-01-13T01:31:58.696Z,0.90
2023-01-13T01:35:03.210Z,1.00
2023-01-13T01:38:07.681Z,1.05
2023-01-13T01:41:15.601Z,1.08
2023-01-13T01:44:41.938Z,1.10
2023-01-13T01:47:49.733Z,1.10
2023-01-13T01:50:54.472Z,0.70
2023-01-13T01:53:59.911Z,0.90
2023-01-13T01:57:05.925Z,1.05
2023-01-13T02:00:11.105Z,1.10
2023-01-13T02:03:18.748Z,1.02
2023-01-13T02:06:23.853Z,1.00
2023-01-13T02:09:30.256Z,1.30
2023-01-13T02:12:35.897Z,1.15
2023-01-13T02:15:58.839Z,1.00
2023-01-13T02:19:32.604Z,0.90
2023-01-13T02:22:36.999Z,1.10
2023-01-13T02:26:00.372Z,1.13
2023-01-13T02:30:16.012Z,1.00
2023-01-13T02:33:44.169Z,1.00
2023-01-13T02:37:04.316Z,0.98
2023-01-13T02:40:18.642Z,0.90
2023-01-13T02:43:53.363Z,0.68
2023-01-13T02:47:05.243Z,0.93
2023-01-13T02:50:17.588Z,0.82
2023-01-13T02:53:30.860Z,0.82
2023-01-13T02:56:41.479Z,0.80
2023-01-13T02:59:46.859Z,0.80
2023-01-13T03:02:53.028Z,0.60
2023-01-13T03:06:25.874Z,0.90
2023-01-13T03:09:42.932Z,0.88
2023-01-13T03:13:10.031Z,0.75
2023-01-13T03:16:15.996Z,0.80
2023-01-13T03:19:57.076Z,0.80
2023-01-13T03:23:21.789Z,0.73
2023-01-13T03:26:39.788Z,1.00
2023-01-13T03:29:55.822Z,0.90
2023-01-13T03:33:07.598Z,0.77
2023-01-13T03:36:14.002Z,0.70
2023-01-13T03:39:26.881Z,0.73
2023-01-13T03:42:34.963Z,0.77
2023-01-13T03:45:41.570Z,0.80
2023-01-13T03:48:48.158Z,0.60
2023-01-13T03:51:58.744Z,0.85
2023-01-13T03:55:15.393Z,0.95
2023-01-13T03:58:27.465Z,0.80
2023-01-13T04:01:41.914Z,0.90
2023-01-13T04:04:56.589Z,0.90
2023-01-13T04:08:11.143Z,0.88
2023-01-13T04:11:25.445Z,0.90
2023-01-13T04:14:30.621Z,0.70
2023-01-13T04:17:35.122Z,0.70
2023-01-13T04:20:40.399Z,1.02
2023-01-13T04:23:44.871Z,0.68
2023-01-13T04:26:49.532Z,1.00
2023-01-13T04:29:53.999Z,0.70
2023-01-13T04:32:58.554Z,0.60
2023-01-13T04:36:03.053Z,1.35
2023-01-13T04:39:07.582Z,0.70
2023-01-13T04:42:12.429Z,0.70
2023-01-13T04:45:17.059Z,0.77
2023-01-13T04:48:21.572Z,0.82
2023-01-13T04:51:26.437Z,0.90
2023-01-13T04:54:30.940Z,0.60
2023-01-13T04:57:37.526Z,0.70
2023-01-13T05:00:45.194Z,0.60
2023-01-13T05:03:49.803Z,0.63
2023-01-13T05:06:54.431Z,0.70
2023-01-13T05:09:59.354Z,0.70
2023-01-13T05:13:23.913Z,0.80
2023-01-13T05:16:48.850Z,0.70
2023-01-13T05:19:53.384Z,0.73
2023-01-13T05:23:16.476Z,0.63
2023-01-13T05:26:23.011Z,0.75
2023-01-13T05:29:27.519Z,0.65
2023-01-13T05:32:33.392Z,0.77
2023-01-13T05:35:39.786Z,0.70
2023-01-13T05:38:44.404Z,0.75
2023-01-13T05:42:07.331Z,0.73
2023-01-13T05:45:12.445Z,0.73
2023-01-13T05:48:19.376Z,0.57
2023-01-13T05:51:26.246Z,1.13
2023-01-13T05:54:30.911Z,0.70
2023-01-13T05:57:35.571Z,0.60
2023-01-13T06:00:42.085Z,0.73
2023-01-13T06:03:46.726Z,0.60
2023-01-13T06:06:51.184Z,0.82
2023-01-13T06:09:55.645Z,1.20
2023-01-13T06:13:00.243Z,0.70
2023-01-13T06:16:04.939Z,0.80
2023-01-13T06:19:12.873Z,0.70
2023-01-13T06:22:25.129Z,1.40
2023-01-13T06:25:52.584Z,1.27
2023-01-13T06:28:57.262Z,0.90
2023-01-13T06:32:23.895Z,1.23
2023-01-13T06:35:34.771Z,1.10
2023-01-13T06:38:42.334Z,0.95
2023-01-13T06:42:08.923Z,0.95
2023-01-13T06:45:14.952Z,0.80
2023-01-13T06:48:22.603Z,0.60
2023-01-13T06:51:27.091Z,1.30
2023-01-13T06:54:31.924Z,0.90
2023-01-13T06:57:56.344Z,0.80
2023-01-13T07:01:01.410Z,0.93
2023-01-13T07:04:06.039Z,1.00
2023-01-13T07:07:12.293Z,1.10
2023-01-13T07:10:22.130Z,1.80
2023-01-13T07:13:45.400Z,1.63
2023-01-13T07:19:57.940Z,1.52
2023-01-13T07:23:02.573Z,1.30
2023-01-13T07:26:09.204Z,1.50
2023-01-13T07:29:13.771Z,1.67
2023-01-13T07:32:18.314Z,1.42
2023-01-13T07:35:24.763Z,1.20
2023-01-13T07:38:30.548Z,1.42
2023-01-13T07:41:53.525Z,1.10
2023-01-13T07:44:58.045Z,1.00
2023-01-13T07:48:02.585Z,1.20
2023-01-13T07:51:10.013Z,0.80
2023-01-13T07:54:14.592Z,1.10
2023-01-13T07:57:19.130Z,1.00
2023-01-13T08:00:23.776Z,1.20
2023-01-13T08:03:28.309Z,1.15
2023-01-13T08:06:32.893Z,1.30
2023-01-13T08:09:37.526Z,1.23
2023-01-13T08:13:00.876Z,1.00
2023-01-13T08:16:10.885Z,1.33
2023-01-13T08:19:15.487Z,1.20
2023-01-13T08:22:20.089Z,1.20
2023-01-13T08:25:25.285Z,1.45
2023-01-13T08:28:29.956Z,1.13
2023-01-13T08:31:34.498Z,1.13
2023-01-13T08:34:39.026Z,1.80
2023-01-13T08:37:44.721Z,1.80
2023-01-13T08:40:50.894Z,2.00
2023-01-13T08:43:55.758Z,1.17
2023-01-13T08:47:00.541Z,1.70
2023-01-13T08:50:06.111Z,1.13
2023-01-13T08:53:10.578Z,1.58
2023-01-13T08:56:15.283Z,1.60
2023-01-13T08:59:20.615Z,1.40
2023-01-13T09:02:27.088Z,1.27
2023-01-13T09:05:31.838Z,1.70
2023-01-13T09:08:36.402Z,2.80
2023-01-13T09:12:03.070Z,2.17
2023-01-13T09:15:08.307Z,2.00
2023-01-13T09:18:13.091Z,1.92
2023-01-13T09:21:19.727Z,2.28
2023-01-13T09:24:24.950Z,1.80
2023-01-13T09:27:29.483Z,1.48
2023-01-13T09:30:34.107Z,1.00
2023-01-13T09:33:56.836Z,1.30
2023-01-13T09:37:02.001Z,1.50
2023-01-13T09:40:16.890Z,1.27
2023-01-13T09:43:47.270Z,1.08
2023-01-13T09:46:56.947Z,1.10
2023-01-13T09:50:29.131Z,1.05
2023-01-13T09:53:38.612Z,1.17
2023-01-13T09:56:43.591Z,1.35
2023-01-13T09:59:48.667Z,0.93
2023-01-13T10:03:07.183Z,1.00
2023-01-13T10:06:42.156Z,1.10
2023-01-13T10:09:51.254Z,0.98
2023-01-13T10:13:14.454Z,1.17
2023-01-13T10:20:11.986Z,1.30
2023-01-13T10:23:37.874Z,1.35
2023-01-13T10:26:57.969Z,1.30
2023-01-13T10:30:17.606Z,1.20
2023-01-13T10:33:30.010Z,1.20
2023-01-13T10:36:34.568Z,1.67
2023-01-13T10:39:49.488Z,1.35
2023-01-13T10:43:06.427Z,1.58
2023-01-13T10:46:18.472Z,1.40
2023-01-13T10:49:36.252Z,1.40
2023-01-13T10:52:55.973Z,1.38
2023-01-13T10:56:03.735Z,2.38
2023-01-13T10:59:26.892Z,1.40
2023-01-13T11:05:37.631Z,1.55
2023-01-13T11:08:45.231Z,1.70
2023-01-13T11:11:55.855Z,1.50
2023-01-13T11:15:04.183Z,1.52
2023-01-13T11:18:18.334Z,1.48
2023-01-13T11:21:27.603Z,1.30
2023-01-13T11:25:01.445Z,1.45
2023-01-13T11:28:12.378Z,1.88
2023-01-13T11:31:18.070Z,1.38
2023-01-13T11:34:35.318Z,1.50
2023-01-13T11:37:44.254Z,1.20
2023-01-13T11:40:50.759Z,1.20
2023-01-13T11:44:25.483Z,1.40
2023-01-13T11:47:32.211Z,1.83
2023-01-13T11:50:42.548Z,1.30
2023-01-13T11:54:16.779Z,1.40
2023-01-13T11:57:58.836Z,1.27
2023-01-13T12:01:29.985Z,1.00
2023-01-13T12:04:36.004Z,1.30
2023-01-13T12:11:31.337Z,1.50
2023-01-13T12:14:44.293Z,1.42
2023-01-13T12:21:38.194Z,0.93
2023-01-13T12:24:54.818Z,1.00
2023-01-13T12:28:05.454Z,0.88
2023-01-13T12:31:11.150Z,1.27
2023-01-13T12:34:54.342Z,1.27
2023-01-13T12:38:11.458Z,1.23
2023-01-13T12:42:03.764Z,1.08
2023-01-13T12:45:30.295Z,1.13
2023-01-13T12:48:55.110Z,1.20
2023-01-13T12:52:07.884Z,1.10
2023-01-13T12:55:16.347Z,1.42
2023-01-13T12:58:29.643Z,0.80
2023-01-13T13:01:36.305Z,0.80
2023-01-13T13:04:52.505Z,1.05
2023-01-13T13:08:19.876Z,0.88
2023-01-13T13:11:57.942Z,0.70
2023-01-13T13:15:04.230Z,1.55
2023-01-13T13:18:17.780Z,0.80
2023-01-13T13:21:22.515Z,0.90
2023-01-13T13:24:29.353Z,1.00
2023-01-13T13:27:37.003Z,0.80
2023-01-13T13:30:49.506Z,1.00
2023-01-13T13:34:05.435Z,0.93
2023-01-13T13:38:01.024Z,0.75
2023-01-13T13:41:39.333Z,1.30
2023-01-13T13:45:06.835Z,0.95
2023-01-13T13:48:27.186Z,1.10
2023-01-13T13:51:39.154Z,1.15
2023-01-13T13:54:49.066Z,0.82
2023-01-13T13:57:57.407Z,0.85
2023-01-13T14:01:04.050Z,0.60
2023-01-13T14:04:20.529Z,0.80
2023-01-13T14:07:25.373Z,1.08
2023-01-13T14:10:36.426Z,0.77
2023-01-13T14:13:40.960Z,0.70
2023-01-13T14:16:46.455Z,0.73
2023-01-13T14:20:13.272Z,0.85
2023-01-13T14:23:18.584Z,1.52
2023-01-13T14:26:29.024Z,0.43
2023-01-13T14:29:33.726Z,1.05
2023-01-13T14:32:38.375Z,0.80
2023-01-13T14:36:08.087Z,0.70
2023-01-13T14:39:14.893Z,0.50
2023-01-13T14:42:20.938Z,0.95
2023-01-13T14:45:25.885Z,0.57
2023-01-13T14:48:35.931Z,0.60
2023-01-13T14:51:40.659Z,0.40
2023-01-13T14:54:49.023Z,0.50
2023-01-13T14:57:53.922Z,0.47
2023-01-13T15:01:28.863Z,0.60
2023-01-13T15:04:37.617Z,0.80
2023-01-13T15:07:50.031Z,0.77
2023-01-13T15:11:06.671Z,0.60
2023-01-13T15:14:11.458Z,0.40
2023-01-13T15:17:17.481Z,0.45
2023-01-13T15:20:24.258Z,0.57
2023-01-13T15:23:28.939Z,0.80
2023-01-13T15:26:34.886Z,0.70
2023-01-13T15:29:39.633Z,0.98
2023-01-13T15:32:44.385Z,1.00
2023-01-13T15:35:51.995Z,0.75
2023-01-13T15:38:57.482Z,0.60
2023-01-13T15:42:20.582Z,0.70
2023-01-13T15:48:53.230Z,0.50
2023-01-13T15:51:59.618Z,0.52
2023-01-13T15:55:04.413Z,0.45
2023-01-13T15:58:12.678Z,0.47
2023-01-13T16:01:17.532Z,0.60
2023-01-13T16:04:22.337Z,0.50
2023-01-13T16:07:26.962Z,0.50
2023-01-13T16:10:31.576Z,0.70
2023-01-13T16:13:36.369Z,1.05
2023-01-13T16:16:41.016Z,0.80
2023-01-13T16:19:46.895Z,0.55
2023-01-13T16:22:51.375Z,0.70
2023-01-13T16:25:56.091Z,0.82
2023-01-13T16:29:00.814Z,0.60
2023-01-13T16:32:05.629Z,0.60
2023-01-13T16:35:10.955Z,0.82
2023-01-13T16:38:16.853Z,0.80
2023-01-13T16:41:22.736Z,1.98
2023-01-13T16:44:27.256Z,1.70
2023-01-13T16:47:31.831Z,1.67
2023-01-13T16:50:41.749Z,0.80
2023-01-13T16:53:46.667Z,0.68
2023-01-13T16:56:51.383Z,0.85
2023-01-13T16:59:56.200Z,1.02
2023-01-13T17:03:02.685Z,0.80
2023-01-13T17:06:11.037Z,1.00
2023-01-13T17:09:18.447Z,0.80
2023-01-13T17:12:23.030Z,1.23
2023-01-13T17:15:27.770Z,1.00
2023-01-13T17:18:32.287Z,1.50
2023-01-13T17:21:36.858Z,0.80
2023-01-13T17:24:42.697Z,1.25
2023-01-13T17:27:47.212Z,0.90
2023-01-13T17:30:51.965Z,0.75
2023-01-13T17:33:56.593Z,1.02
2023-01-13T17:37:01.127Z,0.93
2023-01-13T17:40:06.284Z,0.95
2023-01-13T17:43:10.776Z,0.88
2023-01-13T17:46:19.883Z,0.90
2023-01-13T17:49:24.628Z,1.33
2023-01-13T17:52:29.403Z,0.88
2023-01-13T17:55:34.057Z,1.10
2023-01-13T17:58:40.158Z,1.10
2023-01-13T18:01:45.536Z,1.20
2023-01-13T18:04:50.250Z,1.25
2023-01-13T18:07:55.016Z,1.27
2023-01-13T18:11:00.778Z,1.00
2023-01-13T18:14:05.418Z,1.55
2023-01-13T18:17:10.295Z,1.30
2023-01-13T18:20:34.654Z,1.00
2023-01-13T18:23:57.837Z,1.17
2023-01-13T18:30:26.578Z,1.63
2023-01-13T18:33:31.184Z,1.42
2023-01-13T18:36:36.491Z,1.70
2023-01-13T18:39:41.649Z,1.40
2023-01-13T18:42:52.321Z,1.95
2023-01-13T18:45:56.923Z,1.58
2023-01-13T18:49:01.481Z,1.50
2023-01-13T18:52:06.036Z,1.40
2023-01-13T18:55:10.724Z,1.20
2023-01-13T18:58:15.607Z,0.90
2023-01-13T19:01:23.182Z,1.48
2023-01-13T19:04:27.944Z,0.90
2023-01-13T19:07:35.031Z,1.20
2023-01-13T19:10:39.807Z,1.08
2023-01-13T19:13:44.381Z,1.27
2023-01-13T19:16:49.156Z,1.60
2023-01-13T19:19:56.215Z,1.10
2023-01-13T19:23:00.897Z,1.38
2023-01-13T19:26:10.855Z,1.00
2023-01-13T19:29:15.696Z,1.13
2023-01-13T19:32:21.989Z,1.35
2023-01-13T19:35:26.889Z,0.77
2023-01-13T19:38:31.958Z,1.23
2023-01-13T19:41:55.176Z,1.75
2023-01-13T19:45:18.555Z,2.00
2023-01-13T19:48:23.303Z,1.70
2023-01-13T19:51:27.802Z,1.17
2023-01-13T19:54:32.420Z,1.30
2023-01-13T19:57:39.396Z,1.30
2023-01-13T20:00:47.504Z,1.60
2023-01-13T20:03:52.131Z,2.38
2023-01-13T20:06:56.974Z,2.13
2023-01-13T20:10:01.989Z,1.70
2023-01-13T20:13:07.998Z,1.67
2023-01-13T20:16:12.797Z,1.42
2023-01-13T20:19:17.375Z,1.50
2023-01-13T20:22:22.120Z,1.45
2023-01-13T20:25:28.987Z,1.40
2023-01-13T20:28:37.236Z,1.75
2023-01-13T20:31:42.031Z,1.63
2023-01-13T20:34:46.556Z,1.83
2023-01-13T20:37:51.094Z,1.85
2023-01-13T20:41:00.104Z,1.63
2023-01-13T20:44:05.180Z,1.38
2023-01-13T20:47:10.072Z,1.95
2023-01-13T20:50:15.913Z,1.83
2023-01-13T20:53:20.522Z,1.30
2023-01-13T20:56:25.177Z,1.30
2023-01-13T20:59:29.810Z,1.10
2023-01-13T21:02:34.356Z,1.10
2023-01-13T21:05:38.977Z,1.00
2023-01-13T21:08:43.508Z,1.02
2023-01-13T21:12:06.782Z,1.60
2023-01-13T21:15:18.342Z,1.30
2023-01-13T21:18:41.240Z,1.33
2023-01-13T21:21:45.804Z,1.08
2023-01-13T21:24:50.521Z,1.10
2023-01-13T21:27:58.701Z,1.42
2023-01-13T21:31:05.347Z,1.30
2023-01-13T21:34:10.568Z,1.35
2023-01-13T21:37:16.098Z,1.42
2023-01-13T21:40:20.819Z,1.70
2023-01-13T21:43:43.813Z,1.48
2023-01-13T21:47:06.986Z,1.63
2023-01-13T21:50:13.520Z,1.67
2023-01-13T21:53:18.083Z,1.17
2023-01-13T21:56:24.328Z,1.30
2023-01-13T21:59:28.944Z,1.23
2023-01-13T22:02:35.639Z,1.67
2023-01-13T22:05:40.512Z,1.20
2023-01-13T22:08:45.084Z,1.27
2023-01-13T22:11:49.583Z,1.33
2023-01-13T22:14:55.572Z,1.67
2023-01-13T22:18:00.349Z,1.45
2023-01-13T22:21:05.188Z,1.70
2023-01-13T22:24:09.956Z,1.42
2023-01-13T22:27:18.280Z,1.75
2023-01-13T22:30:24.367Z,1.73
2023-01-13T22:33:29.049Z,1.73
2023-01-13T22:36:33.714Z,1.52
2023-01-13T22:39:39.273Z,1.55
2023-01-13T22:42:43.931Z,2.40
2023-01-13T22:46:09.440Z,1.48
2023-01-13T22:49:15.201Z,1.65
2023-01-13T22:52:19.995Z,1.48
2023-01-13T22:55:24.577Z,1.70
2023-01-13T22:58:29.296Z,1.48
2023-01-13T23:01:35.119Z,1.60
2023-01-13T23:04:39.853Z,1.45
2023-01-13T23:07:44.609Z,1.63
2023-01-13T23:10:49.385Z,1.15
2023-01-13T23:13:59.991Z,1.38
2023-01-13T23:17:04.783Z,1.40
2023-01-13T23:20:10.349Z,1.02
2023-01-13T23:23:14.939Z,1.20
2023-01-13T23:26:20.272Z,1.17
2023-01-13T23:29:24.858Z,1.60
2023-01-13T23:32:29.704Z,0.93
2023-01-13T23:35:34.239Z,1.20
2023-01-13T23:38:39.395Z,1.52
2023-01-13T23:41:44.272Z,1.08
2023-01-13T23:44:48.827Z,1.00
2023-01-13T23:47:54.883Z,0.88
2023-01-13T23:51:05.197Z,0.90
2023-01-13T23:54:09.741Z,0.82
2023-01-13T23:57:14.300Z,0.90
